Strona główna
METAR-TAF:

METAR-TAF

Lotnisko :

Derby, Australia

Szerokość geograficzna: 17-22-12S, Długość geograficzna: 123-39-38E, wysokość: 7 m

Aktualna obserwacja pogody

Raport powstał 1 godzina i 19 minut temu, godzina 08:00 UTC
Wiatr 18 kt od północny zachód
Temperatura 36°C
Wilgotność 45%
Ciśnienie 1003 hPa
Widzialność 10 km lub więcej

METAR: YDBY 080800Z AUTO 32018KT 9999 // NCD 36/22 Q1003

czas: 17:19 (09:19 UTC)


TAF: brakujący

Obserwacja i prognoza pogody dla ponad 4000 lotnisk (raport METAR i TAF).

Dostępne stacje oznaczono żółtymi i czerwonymi punktami na mapie.

Najedź kursorem aby zobaczyć nazwę stacji.

Kliknij aby zobaczyć obserwacje i prognozy pogody.

Aby zmienić mapę: kliknij na zielony przycisk z czarnym krzyżykiem, aby powiększyć; na zielony przycisk z myślnikiem, aby pomniejszyć; na zielone strzałki, aby przejść do map sąsiednich.


METAR-TAF: